Terminal Aerodrome Forecast
Issued by NWS

Home | Current Version | Previous Version | Text Only | Print | Product List | Glossary On
Versions: 1 2 3 4 5 6 7 8 9 10 11 12 13 14 15 16 17 18 19 20 21 22 23 24 25 26 27 28 29 30
000
FTUS41 KBOX 251120
TAFHYA
TAF
KHYA 251120Z 2512/2612 14010G18KT P6SM -RA OVC060
     FM251400 15012G19KT 5SM -RA BR OVC025
     FM251800 13012G20KT 3SM -RA BR OVC008 WS020/16040KT
     FM252000 13014G25KT 1 1/2SM +RA BR OVC008 WS020/16045KT
     FM260000 15016G23KT 1 1/2SM SHRA BR OVC008 WS020/18055KT
     FM260500 16014G21KT 3/4SM -SHRA BR OVC003
     FM261100 20009KT 1SM BR OVC003=

USA.gov is the U.S. government's official web portal to all federal, state and local government web resources and services.